createdAt,value
2019-01-21T00:04:01.815Z,15.50
2019-01-21T00:09:07.557Z,17.47
2019-01-21T00:14:11.428Z,18.60
2019-01-21T00:19:15.134Z,17.97
2019-01-21T00:24:18.850Z,16.80
2019-01-21T00:29:22.664Z,17.53
2019-01-21T00:34:26.417Z,16.67
2019-01-21T00:39:30.140Z,16.33
2019-01-21T00:44:33.930Z,17.87
2019-01-21T00:49:37.637Z,16.60
2019-01-21T00:54:41.433Z,17.23
2019-01-21T00:59:45.188Z,16.03
2019-01-21T01:04:48.953Z,16.67
2019-01-21T01:09:52.658Z,15.50
2019-01-21T01:14:56.477Z,16.23
2019-01-21T01:20:00.264Z,17.20
2019-01-21T01:25:04.542Z,17.00
2019-01-21T01:30:08.989Z,16.10
2019-01-21T01:35:13.375Z,16.13
2019-01-21T01:40:18.174Z,16.23
2019-01-21T01:45:25.459Z,16.57
2019-01-21T01:50:29.545Z,16.10
2019-01-21T01:55:33.546Z,16.80
2019-01-21T02:00:37.771Z,16.32
2019-01-21T02:05:41.668Z,17.23
2019-01-21T02:10:45.468Z,15.50
2019-01-21T02:15:49.270Z,16.07
2019-01-21T02:20:54.579Z,15.40
2019-01-21T02:26:01.204Z,15.93
2019-01-21T02:31:24.023Z,16.53
2019-01-21T02:37:01.976Z,15.77
2019-01-21T02:42:09.295Z,16.47
2019-01-21T02:47:19.061Z,16.33
2019-01-21T02:52:40.768Z,17.90
2019-01-21T02:58:04.650Z,17.30
2019-01-21T03:03:19.017Z,18.23
2019-01-21T03:08:48.131Z,16.57
2019-01-21T03:14:20.127Z,17.67
2019-01-21T03:19:36.364Z,16.53
2019-01-21T03:24:52.407Z,15.33
2019-01-21T03:30:06.687Z,16.53
2019-01-21T03:35:32.449Z,15.43
2019-01-21T03:40:50.124Z,15.40
2019-01-21T03:46:11.758Z,16.33
2019-01-21T03:51:34.589Z,17.03
2019-01-21T03:56:40.899Z,15.23
2019-01-21T04:02:03.840Z,16.70
2019-01-21T04:07:27.055Z,15.75
2019-01-21T04:12:48.815Z,18.13
2019-01-21T04:18:24.506Z,16.23
2019-01-21T04:23:41.191Z,15.87
2019-01-21T04:29:03.995Z,15.60
2019-01-21T04:34:25.587Z,17.50
2019-01-21T04:39:41.251Z,16.70
2019-01-21T04:45:03.027Z,17.23
2019-01-21T04:50:21.163Z,15.77
2019-01-21T04:55:49.963Z,15.93
2019-01-21T05:01:12.772Z,16.93
2019-01-21T05:06:40.500Z,17.17
2019-01-21T05:11:50.788Z,17.30
2019-01-21T05:17:03.693Z,18.20
2019-01-21T05:22:25.735Z,20.13
2019-01-21T05:27:33.788Z,18.23
2019-01-21T05:32:42.431Z,16.77
2019-01-21T05:37:58.839Z,18.40
2019-01-21T05:43:31.039Z,18.27
2019-01-21T05:48:49.352Z,17.77
2019-01-21T05:54:21.067Z,17.23
2019-01-21T05:59:55.943Z,17.87
2019-01-21T06:05:05.286Z,17.50
2019-01-21T06:10:11.653Z,17.60
2019-01-21T06:15:21.824Z,19.00
2019-01-21T06:20:50.721Z,19.17
2019-01-21T06:26:00.299Z,17.67
2019-01-21T06:31:21.884Z,17.50
2019-01-21T06:36:29.609Z,18.00
2019-01-21T06:41:38.291Z,18.77
2019-01-21T06:47:07.223Z,18.37
2019-01-21T06:52:29.362Z,18.97
2019-01-21T06:57:55.126Z,19.23
2019-01-21T07:03:17.947Z,19.23
2019-01-21T07:08:39.652Z,19.90
2019-01-21T07:14:02.643Z,18.97
2019-01-21T07:19:24.371Z,19.57
2019-01-21T07:24:40.963Z,21.53
2019-01-21T07:30:04.372Z,21.03
2019-01-21T07:35:36.041Z,25.53
2019-01-21T07:40:57.254Z,24.30
2019-01-21T07:46:25.882Z,22.73
2019-01-21T07:51:54.906Z,20.63
2019-01-21T07:57:29.695Z,21.23
2019-01-21T08:02:50.560Z,21.53
2019-01-21T08:08:28.592Z,19.40
2019-01-21T08:13:54.204Z,21.83
2019-01-21T08:19:08.594Z,22.52
2019-01-21T08:24:34.339Z,22.73
2019-01-21T08:30:03.500Z,22.93
2019-01-21T08:35:24.995Z,25.43
2019-01-21T08:40:43.243Z,26.10
2019-01-21T08:46:21.465Z,25.93
2019-01-21T08:51:37.267Z,27.20
2019-01-21T08:56:48.379Z,26.97
2019-01-21T09:02:14.333Z,27.63
2019-01-21T09:07:35.750Z,29.23
2019-01-21T09:13:10.909Z,34.83
2019-01-21T09:18:28.233Z,35.10
2019-01-21T09:23:57.039Z,32.47
2019-01-21T09:29:07.342Z,34.33
2019-01-21T09:34:19.590Z,30.20
2019-01-21T09:39:37.603Z,27.77
2019-01-21T09:44:48.488Z,28.10
2019-01-21T09:49:52.207Z,26.03
2019-01-21T09:54:56.180Z,25.80
2019-01-21T10:00:00.641Z,24.93
2019-01-21T10:05:07.061Z,25.60
2019-01-21T10:10:28.634Z,24.83
2019-01-21T10:16:06.843Z,25.27
2019-01-21T10:21:29.683Z,25.73
2019-01-21T10:27:10.561Z,24.87
2019-01-21T10:32:31.842Z,24.77
2019-01-21T10:38:00.330Z,24.37
2019-01-21T10:43:21.897Z,25.43
2019-01-21T10:48:29.999Z,24.67
2019-01-21T10:53:55.593Z,23.63
2019-01-21T10:59:17.303Z,24.53
2019-01-21T11:04:40.194Z,24.30
2019-01-21T11:09:53.917Z,25.27
2019-01-21T11:15:15.570Z,26.37
2019-01-21T11:20:50.293Z,25.53
2019-01-21T11:26:25.402Z,25.48
2019-01-21T11:31:38.514Z,24.67
2019-01-21T11:36:45.617Z,25.07
2019-01-21T11:42:05.396Z,27.57
2019-01-21T11:47:31.192Z,26.63
2019-01-21T11:52:59.878Z,25.17
2019-01-21T11:58:15.901Z,26.30
2019-01-21T12:03:41.443Z,26.00
2019-01-21T12:08:59.007Z,25.20
2019-01-21T12:14:37.303Z,24.70
2019-01-21T12:19:53.784Z,25.20
2019-01-21T12:25:03.711Z,23.40
2019-01-21T12:30:29.399Z,25.87
2019-01-21T12:35:54.071Z,24.97
2019-01-21T12:41:13.730Z,24.23
2019-01-21T12:46:24.255Z,21.12
2019-01-21T12:51:56.345Z,23.17
2019-01-21T12:57:19.259Z,22.00
2019-01-21T13:02:36.417Z,22.93
2019-01-21T13:07:42.882Z,23.63
2019-01-21T13:13:11.967Z,21.80
2019-01-21T13:18:43.704Z,20.97
2019-01-21T13:24:15.111Z,19.30
2019-01-21T13:29:46.928Z,20.10
2019-01-21T13:35:21.693Z,21.07
2019-01-21T13:40:35.610Z,20.93
2019-01-21T13:45:46.830Z,20.13
2019-01-21T13:51:15.243Z,20.20
2019-01-21T13:56:36.448Z,20.83
2019-01-21T14:02:09.581Z,21.37
2019-01-21T14:07:32.314Z,19.10
2019-01-21T14:13:01.175Z,20.27
2019-01-21T14:18:22.098Z,18.67
2019-01-21T14:23:31.408Z,20.70
2019-01-21T14:28:42.133Z,20.08
2019-01-21T14:33:58.230Z,21.47
2019-01-21T14:39:07.258Z,18.93
2019-01-21T14:44:28.982Z,19.80
2019-01-21T14:50:00.883Z,21.00
2019-01-21T14:55:35.958Z,21.42
2019-01-21T15:00:45.907Z,19.90
2019-01-21T15:06:20.837Z,20.83
2019-01-21T15:11:49.437Z,20.63
2019-01-21T15:17:21.610Z,23.47
2019-01-21T15:22:45.559Z,22.60
2019-01-21T15:28:23.590Z,21.77
2019-01-21T15:33:34.484Z,22.33
2019-01-21T15:38:48.070Z,20.50
2019-01-21T15:44:19.770Z,21.40
2019-01-21T15:49:34.038Z,21.33
2019-01-21T15:54:47.338Z,21.67
2019-01-21T16:00:08.800Z,19.87
2019-01-21T16:05:40.720Z,21.73
2019-01-21T16:11:08.807Z,23.47
2019-01-21T16:16:34.064Z,21.97
2019-01-21T16:21:55.824Z,28.07
2019-01-21T16:27:08.841Z,24.70
2019-01-21T16:32:34.705Z,24.67
2019-01-21T16:37:56.916Z,24.33
2019-01-21T16:43:00.783Z,25.53
2019-01-21T16:48:04.575Z,26.77
2019-01-21T16:53:08.322Z,24.83
2019-01-21T16:58:12.109Z,22.37
2019-01-21T17:03:15.836Z,22.83
2019-01-21T17:08:19.571Z,22.93
2019-01-21T17:13:23.308Z,24.53
2019-01-21T17:18:27.030Z,26.03
2019-01-21T17:23:30.806Z,24.57
2019-01-21T17:28:34.610Z,25.03
2019-01-21T17:33:38.342Z,26.30
2019-01-21T17:38:42.183Z,26.70
2019-01-21T17:43:45.932Z,27.57
2019-01-21T17:48:49.665Z,28.37
2019-01-21T17:53:53.580Z,28.73
2019-01-21T17:58:57.468Z,28.73
2019-01-21T18:04:01.309Z,29.20
2019-01-21T18:09:07.310Z,31.67
2019-01-21T18:14:11.040Z,31.03
2019-01-21T18:19:14.847Z,31.83
2019-01-21T18:24:18.561Z,31.70
2019-01-21T18:29:22.384Z,37.90
2019-01-21T18:34:26.116Z,40.20
2019-01-21T18:39:29.859Z,35.60
2019-01-21T18:44:33.627Z,35.97
2019-01-21T18:49:37.422Z,36.77
2019-01-21T18:54:41.162Z,37.53
2019-01-21T18:59:44.961Z,37.37
2019-01-21T19:04:48.682Z,36.70
2019-01-21T19:09:52.732Z,37.10
2019-01-21T19:14:56.417Z,35.53
2019-01-21T19:20:00.188Z,36.10
2019-01-21T19:25:04.483Z,37.83
2019-01-21T19:30:09.785Z,41.47
2019-01-21T19:35:14.407Z,38.27
2019-01-21T19:40:19.205Z,36.37
2019-01-21T19:45:22.947Z,37.33
2019-01-21T19:50:27.208Z,36.60
2019-01-21T19:55:32.461Z,37.53
2019-01-21T20:00:36.226Z,37.80
2019-01-21T20:05:40.092Z,35.17
2019-01-21T20:10:43.898Z,37.00
2019-01-21T20:15:47.612Z,36.80
2019-01-21T20:20:51.382Z,35.53
2019-01-21T20:25:55.123Z,34.93
2019-01-21T20:30:59.172Z,37.50
2019-01-21T20:36:02.942Z,35.52
2019-01-21T20:41:06.705Z,37.03
2019-01-21T20:46:10.417Z,38.37
2019-01-21T20:51:14.199Z,39.43
2019-01-21T20:56:17.895Z,37.00
2019-01-21T21:01:21.618Z,40.77
2019-01-21T21:06:25.358Z,39.27
2019-01-21T21:11:29.079Z,37.60
2019-01-21T21:16:32.820Z,34.00
2019-01-21T21:21:36.532Z,32.87
2019-01-21T21:26:40.272Z,35.20
2019-01-21T21:31:44.060Z,35.27
2019-01-21T21:36:48.053Z,38.67
2019-01-21T21:41:51.850Z,36.37
2019-01-21T21:46:55.653Z,34.63
2019-01-21T21:51:59.799Z,35.63
2019-01-21T21:57:03.799Z,35.57
2019-01-21T22:02:07.647Z,32.67
2019-01-21T22:07:11.418Z,34.03
2019-01-21T22:12:15.324Z,33.07
2019-01-21T22:17:19.108Z,34.67
2019-01-21T22:22:22.897Z,34.03
2019-01-21T22:27:26.702Z,34.57
2019-01-21T22:32:30.463Z,37.07
2019-01-21T22:37:34.337Z,35.40
2019-01-21T22:42:38.346Z,33.80
2019-01-21T22:47:42.204Z,33.98
2019-01-21T22:52:46.287Z,32.40
2019-01-21T22:57:50.106Z,32.73
2019-01-21T23:02:53.901Z,35.03
2019-01-21T23:07:57.630Z,34.70
2019-01-21T23:13:01.495Z,35.27
2019-01-21T23:18:05.921Z,37.00
2019-01-21T23:23:09.724Z,36.77
2019-01-21T23:28:13.510Z,36.10
2019-01-21T23:33:17.302Z,36.90
2019-01-21T23:38:21.109Z,39.17
2019-01-21T23:43:24.880Z,35.87
2019-01-21T23:48:29.154Z,37.90
2019-01-21T23:53:36.127Z,39.57
2019-01-21T23:58:40.201Z,39.37
